Time;durP1;ratioP1;P1;durP2;ratioP2;P2;SDS_P1;SDS_P2;PMS_P1;PMS_P2;Temp;Humidity;BMP_temperature;BMP_pressure;BME280_temperature;BME280_humidity;BME280_pressure;Samples;Min_cycle;Max_cycle;Signal;HPM_P1;HPM_P2
2024/01/03 00:01:10;;;;;;;4.75;0.50;;;;;;;;;;5138969;27;20072;-77
2024/01/03 00:03:36;;;;;;;4.20;0.20;;;;;;;;;;5139048;27;20039;-74
2024/01/03 00:06:03;;;;;;;3.97;0.10;;;;;;;;;;5156612;27;20497;-77
2024/01/03 00:08:30;;;;;;;5.90;0.30;;;;;;;;;;5156349;27;20054;-76
2024/01/03 00:10:57;;;;;;;3.00;0.20;;;;;;;;;;5138106;27;20046;-77
2024/01/03 00:13:53;;;;;;;2.92;0.20;;;;;;;;;;5156918;27;20046;-78
2024/01/03 00:16:20;;;;;;;3.15;0.20;;;;;;;;;;5156358;27;20502;-79
2024/01/03 00:18:54;;;;;;;3.05;0.30;;;;;;;;;;5138315;27;20050;-77
2024/01/03 00:21:25;;;;;;;5.10;0.38;;;;;;;;;;5138093;27;20147;-78
2024/01/03 00:23:58;;;;;;;3.55;0.50;;;;;;;;;;5139010;27;20069;-78
2024/01/03 00:26:28;;;;;;;3.33;0.20;;;;;;;;;;5138663;27;20088;-77
2024/01/03 00:28:54;;;;;;;2.65;0.43;;;;;;;;;;5138835;27;20129;-77
2024/01/03 00:31:36;;;;;;;3.40;0.20;;;;;;;;;;5156482;27;20506;-76
2024/01/03 00:34:02;;;;;;;6.82;0.40;;;;;;;;;;5139805;27;20058;-79
2024/01/03 00:36:29;;;;;;;5.15;0.30;;;;;;;;;;5157550;27;20502;-78
2024/01/03 00:38:55;;;;;;;3.03;0.23;;;;;;;;;;5139545;27;20043;-77
2024/01/03 00:41:21;;;;;;;4.25;0.20;;;;;;;;;;5156627;27;20054;-78
2024/01/03 00:43:47;;;;;;;4.35;0.20;;;;;;;;;;5138394;27;20034;-78
2024/01/03 00:46:13;;;;;;;4.25;0.35;;;;;;;;;;5156917;27;20095;-79
2024/01/03 00:48:40;;;;;;;4.07;0.70;;;;;;;;;;5137694;27;20563;-79
2024/01/03 00:51:07;;;;;;;6.57;0.43;;;;;;;;;;5156994;27;20287;-78
2024/01/03 00:53:33;;;;;;;7.75;0.60;;;;;;;;;;5156102;27;20086;-79
2024/01/03 00:55:59;;;;;;;6.00;0.40;;;;;;;;;;5157139;27;20074;-78
2024/01/03 00:58:26;;;;;;;6.93;0.65;;;;;;;;;;5121827;27;20050;-77
2024/01/03 01:00:52;;;;;;;3.17;0.43;;;;;;;;;;5156082;27;20079;-78
2024/01/03 01:03:18;;;;;;;5.30;0.30;;;;;;;;;;5157041;27;20107;-74
2024/01/03 01:05:44;;;;;;;6.22;0.30;;;;;;;;;;5139043;27;20046;-79
2024/01/03 01:08:10;;;;;;;4.97;0.40;;;;;;;;;;5157514;27;20113;-80
2024/01/03 01:10:36;;;;;;;3.90;0.20;;;;;;;;;;5138867;27;20050;-78
2024/01/03 01:13:03;;;;;;;6.82;0.50;;;;;;;;;;5120857;27;20057;-77
2024/01/03 01:15:29;;;;;;;5.65;0.47;;;;;;;;;;5155812;27;20129;-78
2024/01/03 01:17:55;;;;;;;6.83;0.57;;;;;;;;;;5155816;27;20044;-79
2024/01/03 01:20:21;;;;;;;10.82;0.70;;;;;;;;;;5138236;27;20276;-79
2024/01/03 01:22:47;;;;;;;7.00;0.45;;;;;;;;;;5138576;27;20047;-78
2024/01/03 01:25:15;;;;;;;8.23;0.50;;;;;;;;;;5158636;27;20035;-76
2024/01/03 01:27:41;;;;;;;8.88;0.70;;;;;;;;;;5158175;27;20050;-77
2024/01/03 01:30:08;;;;;;;6.85;0.55;;;;;;;;;;5123233;27;20075;-73
2024/01/03 01:32:34;;;;;;;4.50;0.40;;;;;;;;;;5139132;27;20103;-76
2024/01/03 01:35:00;;;;;;;8.50;0.40;;;;;;;;;;5138427;27;20490;-79
2024/01/03 01:37:26;;;;;;;10.13;0.50;;;;;;;;;;5157903;27;20042;-79
2024/01/03 01:39:52;;;;;;;8.40;0.50;;;;;;;;;;5156214;27;20042;-80
2024/01/03 01:42:18;;;;;;;6.07;0.40;;;;;;;;;;5139101;27;20089;-77
2024/01/03 01:44:44;;;;;;;5.90;0.50;;;;;;;;;;5143425;27;20501;-79
2024/01/03 01:47:11;;;;;;;4.00;0.30;;;;;;;;;;5160224;27;20043;-70
2024/01/03 01:49:39;;;;;;;3.65;0.30;;;;;;;;;;5139052;27;20050;-76
2024/01/03 01:52:07;;;;;;;3.88;0.50;;;;;;;;;;5121540;27;20051;-76
2024/01/03 01:54:33;;;;;;;8.25;0.55;;;;;;;;;;5125277;27;20034;-78
2024/01/03 01:56:59;;;;;;;2.73;0.30;;;;;;;;;;5142756;27;20049;-77
2024/01/03 01:59:26;;;;;;;3.55;0.30;;;;;;;;;;5107392;27;20078;-76
2024/01/03 02:01:52;;;;;;;6.25;0.40;;;;;;;;;;5141718;27;20096;-78
2024/01/03 02:04:18;;;;;;;1.67;0.20;;;;;;;;;;5160057;27;20049;-72
2024/01/03 02:06:44;;;;;;;3.63;0.20;;;;;;;;;;5160188;27;20107;-78
2024/01/03 02:09:11;;;;;;;5.65;0.50;;;;;;;;;;5160358;27;20505;-79
2024/01/03 02:11:44;;;;;;;6.13;0.40;;;;;;;;;;5143628;27;20038;-78
2024/01/03 02:14:10;;;;;;;3.60;0.30;;;;;;;;;;5160818;27;20046;-81
2024/01/03 02:16:36;;;;;;;5.03;0.30;;;;;;;;;;5160182;27;20045;-78
2024/01/03 02:19:04;;;;;;;4.95;0.57;;;;;;;;;;5160248;27;20057;-76
2024/01/03 02:21:30;;;;;;;3.40;0.25;;;;;;;;;;5161186;27;20057;-79
2024/01/03 02:23:57;;;;;;;6.80;0.37;;;;;;;;;;5160335;27;20135;-71
2024/01/03 02:26:23;;;;;;;2.55;0.25;;;;;;;;;;5160083;27;20292;-76
2024/01/03 02:28:49;;;;;;;1.55;0.30;;;;;;;;;;5141720;27;20492;-77
2024/01/03 02:31:15;;;;;;;3.80;0.30;;;;;;;;;;5142633;27;20047;-79
2024/01/03 02:33:41;;;;;;;3.15;0.30;;;;;;;;;;5142033;27;20088;-77
2024/01/03 02:36:07;;;;;;;3.78;0.55;;;;;;;;;;5159466;27;20374;-74
2024/01/03 02:38:33;;;;;;;4.65;0.55;;;;;;;;;;5158399;27;20053;-75
2024/01/03 02:40:59;;;;;;;6.90;0.70;;;;;;;;;;5122829;27;20046;-74
2024/01/03 02:43:25;;;;;;;7.40;1.15;;;;;;;;;;5159242;27;20043;-76
2024/01/03 02:45:51;;;;;;;5.65;0.63;;;;;;;;;;5158819;27;20201;-74
2024/01/03 02:48:18;;;;;;;8.35;0.30;;;;;;;;;;5123674;27;20050;-77
2024/01/03 02:50:47;;;;;;;7.93;0.82;;;;;;;;;;5140946;27;20038;-73
2024/01/03 02:53:14;;;;;;;8.05;0.52;;;;;;;;;;5158249;27;20046;-76
2024/01/03 02:55:40;;;;;;;8.13;0.70;;;;;;;;;;5140055;27;20046;-74
2024/01/03 02:58:06;;;;;;;10.18;0.52;;;;;;;;;;5139938;27;20038;-72
2024/01/03 03:00:32;;;;;;;7.47;0.50;;;;;;;;;;5139624;27;20043;-75
2024/01/03 03:02:58;;;;;;;14.60;0.90;;;;;;;;;;5140589;27;20360;-73
2024/01/03 03:05:24;;;;;;;6.63;0.70;;;;;;;;;;5157786;27;20085;-73
2024/01/03 03:07:50;;;;;;;12.00;1.00;;;;;;;;;;5157553;27;20046;-68
2024/01/03 03:10:16;;;;;;;11.27;0.77;;;;;;;;;;5158045;27;20047;-73
2024/01/03 03:12:42;;;;;;;13.73;1.10;;;;;;;;;;5140242;27;20340;-76
2024/01/03 03:15:09;;;;;;;11.60;0.88;;;;;;;;;;5139651;27;20078;-74
2024/01/03 03:17:35;;;;;;;13.97;0.97;;;;;;;;;;5157711;27;20127;-74
2024/01/03 03:20:01;;;;;;;18.30;2.10;;;;;;;;;;5138996;27;20276;-74
2024/01/03 03:22:27;;;;;;;13.93;1.55;;;;;;;;;;5139564;27;20039;-70
2024/01/03 03:24:53;;;;;;;17.33;1.25;;;;;;;;;;5158218;27;20064;-76
2024/01/03 03:27:19;;;;;;;17.13;1.38;;;;;;;;;;5157555;27;20050;-74
2024/01/03 03:29:45;;;;;;;15.30;1.27;;;;;;;;;;5157610;27;20050;-74
2024/01/03 03:32:11;;;;;;;10.75;0.80;;;;;;;;;;5139166;27;20079;-74
2024/01/03 03:34:37;;;;;;;15.38;0.77;;;;;;;;;;5157265;27;20478;-71
2024/01/03 03:37:04;;;;;;;11.60;1.17;;;;;;;;;;5157536;27;20443;-74
2024/01/03 03:39:30;;;;;;;11.18;0.82;;;;;;;;;;5122060;27;20362;-69
2024/01/03 03:41:56;;;;;;;12.52;1.15;;;;;;;;;;5122264;27;20055;-77
2024/01/03 03:44:22;;;;;;;13.00;1.05;;;;;;;;;;5158383;27;20042;-78
2024/01/03 03:46:48;;;;;;;11.25;0.85;;;;;;;;;;5141312;27;20457;-78
2024/01/03 03:49:15;;;;;;;13.77;1.27;;;;;;;;;;5141054;27;20046;-79
2024/01/03 03:51:46;;;;;;;16.80;1.10;;;;;;;;;;5158758;27;20103;-80
2024/01/03 03:54:12;;;;;;;17.08;3.03;;;;;;;;;;5158595;27;20043;-70
2024/01/03 03:56:38;;;;;;;9.27;0.75;;;;;;;;;;5140203;27;20138;-78
2024/01/03 03:59:07;;;;;;;19.33;1.25;;;;;;;;;;5140579;27;20042;-75
2024/01/03 04:01:33;;;;;;;13.38;0.75;;;;;;;;;;5158767;27;20079;-77
2024/01/03 04:03:59;;;;;;;8.63;1.10;;;;;;;;;;5158655;27;20155;-79
2024/01/03 04:06:25;;;;;;;13.85;1.63;;;;;;;;;;5139659;27;20311;-81
2024/01/03 04:08:51;;;;;;;13.25;1.02;;;;;;;;;;5158368;27;20062;-77
2024/01/03 04:11:17;;;;;;;11.25;1.10;;;;;;;;;;5140341;27;20082;-80
2024/01/03 04:13:43;;;;;;;13.52;1.17;;;;;;;;;;5138641;27;20046;-76
2024/01/03 04:16:10;;;;;;;11.02;1.13;;;;;;;;;;5138358;27;20046;-79
2024/01/03 04:18:36;;;;;;;10.20;0.70;;;;;;;;;;5158546;27;20463;-79
2024/01/03 04:21:05;;;;;;;13.45;0.80;;;;;;;;;;5157235;27;20058;-78
2024/01/03 04:23:31;;;;;;;12.15;0.80;;;;;;;;;;5156853;27;20035;-76
2024/01/03 04:25:58;;;;;;;18.70;1.10;;;;;;;;;;5156956;27;20053;-80
2024/01/03 04:28:24;;;;;;;10.67;0.53;;;;;;;;;;5138646;27;20086;-78
2024/01/03 04:30:50;;;;;;;11.55;1.00;;;;;;;;;;5156694;27;20089;-80
2024/01/03 04:33:16;;;;;;;14.07;1.52;;;;;;;;;;5138645;27;20054;-75
2024/01/03 04:35:42;;;;;;;12.05;1.83;;;;;;;;;;5157015;27;20050;-72
2024/01/03 04:38:08;;;;;;;10.60;0.68;;;;;;;;;;5157164;27;20049;-77
2024/01/03 04:40:34;;;;;;;12.93;1.27;;;;;;;;;;5137988;27;20057;-78
2024/01/03 04:43:00;;;;;;;13.57;1.10;;;;;;;;;;5156927;27;20129;-79
2024/01/03 04:45:26;;;;;;;18.70;2.13;;;;;;;;;;5157183;27;20129;-79
2024/01/03 04:47:53;;;;;;;11.98;1.90;;;;;;;;;;5156886;27;20091;-79
2024/01/03 04:50:19;;;;;;;12.98;0.95;;;;;;;;;;5156257;27;20137;-81
2024/01/03 04:52:45;;;;;;;9.93;1.02;;;;;;;;;;5139688;27;20074;-81
2024/01/03 04:55:12;;;;;;;10.05;0.82;;;;;;;;;;5159012;27;20057;-79
2024/01/03 04:57:38;;;;;;;14.45;1.25;;;;;;;;;;5140811;27;20038;-80
2024/01/03 05:00:05;;;;;;;9.55;1.10;;;;;;;;;;5158296;27;20091;-80
2024/01/03 05:02:31;;;;;;;14.00;0.98;;;;;;;;;;5156565;27;20133;-80
2024/01/03 05:04:57;;;;;;;10.70;0.80;;;;;;;;;;5138497;27;20057;-79
2024/01/03 05:07:23;;;;;;;15.30;1.10;;;;;;;;;;5156028;27;20131;-76
2024/01/03 05:09:49;;;;;;;12.90;0.85;;;;;;;;;;5156555;27;20051;-75
2024/01/03 05:12:15;;;;;;;11.20;1.27;;;;;;;;;;5120798;27;20478;-78
2024/01/03 05:14:42;;;;;;;12.57;0.77;;;;;;;;;;5155885;27;20042;-76
2024/01/03 05:17:08;;;;;;;17.80;1.55;;;;;;;;;;5155943;27;20039;-77
2024/01/03 05:19:34;;;;;;;10.98;1.45;;;;;;;;;;5155775;27;20046;-77
2024/01/03 05:22:00;;;;;;;14.07;1.33;;;;;;;;;;5120211;27;20115;-77
2024/01/03 05:24:27;;;;;;;13.20;0.93;;;;;;;;;;5120285;27;20046;-73
2024/01/03 05:26:53;;;;;;;14.85;1.27;;;;;;;;;;5136098;27;20038;-77
2024/01/03 05:29:19;;;;;;;12.77;1.23;;;;;;;;;;5155333;27;20138;-79
2024/01/03 05:31:45;;;;;;;10.13;0.98;;;;;;;;;;5137192;27;20095;-77
2024/01/03 05:34:12;;;;;;;17.80;2.40;;;;;;;;;;5137368;27;20062;-78
2024/01/03 05:36:38;;;;;;;12.32;1.10;;;;;;;;;;5120274;27;20049;-78
2024/01/03 05:39:04;;;;;;;14.13;1.00;;;;;;;;;;5137856;27;20049;-73
2024/01/03 05:41:30;;;;;;;12.00;1.30;;;;;;;;;;5119941;27;20060;-76
2024/01/03 05:43:56;;;;;;;16.80;1.20;;;;;;;;;;5136610;27;20038;-77
2024/01/03 05:46:24;;;;;;;14.15;1.67;;;;;;;;;;5155146;27;20034;-76
2024/01/03 05:48:50;;;;;;;11.60;1.25;;;;;;;;;;5136710;27;20043;-77
2024/01/03 05:51:16;;;;;;;12.63;1.73;;;;;;;;;;5154996;27;20047;-75
2024/01/03 05:53:47;;;;;;;13.48;1.00;;;;;;;;;;5136977;27;20398;-80
2024/01/03 05:56:16;;;;;;;10.77;1.23;;;;;;;;;;5137122;27;20132;-76
2024/01/03 05:58:43;;;;;;;10.18;1.20;;;;;;;;;;5154795;27;20493;-75
2024/01/03 06:01:09;;;;;;;15.05;1.38;;;;;;;;;;5154697;27;20078;-76
2024/01/03 06:03:35;;;;;;;16.70;1.70;;;;;;;;;;5136765;27;20093;-75
2024/01/03 06:06:01;;;;;;;9.63;0.73;;;;;;;;;;5155619;27;20106;-74
2024/01/03 06:08:28;;;;;;;11.40;1.13;;;;;;;;;;5119252;27;20096;-75
2024/01/03 06:10:55;;;;;;;15.23;2.00;;;;;;;;;;5155187;27;20413;-76
2024/01/03 06:13:24;;;;;;;13.60;1.40;;;;;;;;;;5155060;27;20405;-74
2024/01/03 06:15:50;;;;;;;12.93;1.40;;;;;;;;;;5155371;27;20046;-76
2024/01/03 06:18:16;;;;;;;12.77;1.02;;;;;;;;;;5136356;27;20038;-74
2024/01/03 06:20:43;;;;;;;11.65;1.80;;;;;;;;;;5136387;27;20046;-73
2024/01/03 06:23:09;;;;;;;15.13;1.15;;;;;;;;;;5137292;27;20477;-75
2024/01/03 06:25:37;;;;;;;12.02;1.08;;;;;;;;;;5137313;27;20431;-75
2024/01/03 06:28:03;;;;;;;9.18;1.02;;;;;;;;;;5136830;27;20042;-75
2024/01/03 06:30:29;;;;;;;17.73;0.88;;;;;;;;;;5136724;27;20097;-75
2024/01/03 06:32:55;;;;;;;11.10;1.10;;;;;;;;;;5136315;27;20042;-75
2024/01/03 06:35:21;;;;;;;17.25;2.45;;;;;;;;;;5136831;27;20098;-69
2024/01/03 06:37:47;;;;;;;14.25;1.23;;;;;;;;;;5154577;27;20091;-76
2024/01/03 06:40:14;;;;;;;13.40;1.20;;;;;;;;;;5158002;27;20046;-74
2024/01/03 06:42:40;;;;;;;14.85;1.25;;;;;;;;;;5159179;27;20055;-74
2024/01/03 06:45:07;;;;;;;14.20;1.10;;;;;;;;;;5139852;27;20050;-75
2024/01/03 06:47:33;;;;;;;10.63;1.20;;;;;;;;;;5140544;27;20452;-74
2024/01/03 06:49:59;;;;;;;11.10;0.63;;;;;;;;;;5139616;27;20129;-74
2024/01/03 06:52:25;;;;;;;14.43;1.30;;;;;;;;;;5140044;27;20054;-75
2024/01/03 06:54:51;;;;;;;12.27;1.58;;;;;;;;;;5140063;27;20219;-74
2024/01/03 06:57:17;;;;;;;9.10;0.98;;;;;;;;;;5157947;27;20172;-73
2024/01/03 06:59:46;;;;;;;14.05;1.10;;;;;;;;;;5157996;27;20043;-75
2024/01/03 07:02:12;;;;;;;12.00;1.20;;;;;;;;;;5158732;27;20167;-74
2024/01/03 07:04:39;;;;;;;14.50;1.07;;;;;;;;;;5157867;27;20042;-74
2024/01/03 07:07:05;;;;;;;16.02;1.10;;;;;;;;;;5122037;27;20038;-73
2024/01/03 07:09:31;;;;;;;14.18;1.05;;;;;;;;;;5158174;27;20051;-73
2024/01/03 07:11:57;;;;;;;16.90;1.05;;;;;;;;;;5158453;27;20145;-76
2024/01/03 07:14:23;;;;;;;14.75;1.35;;;;;;;;;;5122292;27;20409;-74
2024/01/03 07:16:49;;;;;;;11.77;1.35;;;;;;;;;;5158152;27;20103;-74
2024/01/03 07:19:15;;;;;;;14.25;1.33;;;;;;;;;;5157410;27;20045;-73
2024/01/03 07:21:41;;;;;;;12.93;1.40;;;;;;;;;;5157649;27;20055;-74
2024/01/03 07:24:07;;;;;;;18.17;1.48;;;;;;;;;;5139063;27;20038;-75
2024/01/03 07:26:33;;;;;;;14.88;1.08;;;;;;;;;;5157648;27;20042;-73
2024/01/03 07:29:00;;;;;;;15.23;1.17;;;;;;;;;;5157203;27;20046;-74
2024/01/03 07:31:27;;;;;;;14.30;1.42;;;;;;;;;;5157331;27;20046;-74
2024/01/03 07:33:53;;;;;;;15.20;1.25;;;;;;;;;;5157326;27;20050;-73
2024/01/03 07:36:19;;;;;;;13.75;1.20;;;;;;;;;;5157684;27;20548;-73
2024/01/03 07:38:45;;;;;;;16.63;2.25;;;;;;;;;;5138922;27;20043;-73
2024/01/03 07:41:11;;;;;;;14.52;1.42;;;;;;;;;;5138647;27;20046;-73
2024/01/03 07:43:38;;;;;;;16.88;1.50;;;;;;;;;;5156700;27;20049;-74
2024/01/03 07:46:04;;;;;;;14.93;2.08;;;;;;;;;;5156887;27;20050;-75
2024/01/03 07:48:30;;;;;;;17.10;1.13;;;;;;;;;;5156667;27;20509;-76
2024/01/03 07:50:56;;;;;;;17.75;1.52;;;;;;;;;;5156049;27;20043;-72
2024/01/03 07:53:22;;;;;;;11.40;1.42;;;;;;;;;;5156698;27;20050;-74
2024/01/03 07:55:48;;;;;;;17.23;1.75;;;;;;;;;;5156872;27;20117;-74
2024/01/03 07:58:14;;;;;;;15.88;1.13;;;;;;;;;;5156511;27;20039;-74
2024/01/03 08:00:40;;;;;;;12.07;1.48;;;;;;;;;;5138687;27;20505;-73
2024/01/03 08:03:06;;;;;;;16.27;1.25;;;;;;;;;;5156625;27;20091;-76
2024/01/03 08:05:32;;;;;;;14.95;1.80;;;;;;;;;;5138612;27;20050;-74
2024/01/03 08:07:59;;;;;;;17.90;1.65;;;;;;;;;;5156332;27;20042;-74
2024/01/03 08:10:25;;;;;;;12.75;1.77;;;;;;;;;;5138243;27;20055;-74
2024/01/03 08:12:51;;;;;;;16.73;1.70;;;;;;;;;;5121163;27;20122;-75
2024/01/03 08:15:17;;;;;;;12.98;1.20;;;;;;;;;;5138497;27;20046;-74
2024/01/03 08:17:43;;;;;;;16.58;1.27;;;;;;;;;;5157026;27;20082;-74
2024/01/03 08:20:09;;;;;;;16.10;1.40;;;;;;;;;;5156244;27;20053;-73
2024/01/03 08:22:35;;;;;;;14.90;1.45;;;;;;;;;;5156342;27;20130;-74
2024/01/03 08:25:02;;;;;;;16.08;1.20;;;;;;;;;;5156358;27;20371;-74
2024/01/03 08:27:28;;;;;;;18.63;1.85;;;;;;;;;;5137637;27;20034;-74
2024/01/03 08:29:54;;;;;;;19.92;1.83;;;;;;;;;;5156208;27;20095;-75
2024/01/03 08:32:20;;;;;;;16.25;1.88;;;;;;;;;;5120388;27;20046;-75
2024/01/03 08:34:46;;;;;;;12.75;1.67;;;;;;;;;;5137814;27;20053;-75
2024/01/03 08:37:12;;;;;;;16.30;1.65;;;;;;;;;;5156044;27;20089;-74
2024/01/03 08:39:38;;;;;;;18.42;1.98;;;;;;;;;;5156062;27;20047;-75
2024/01/03 08:42:04;;;;;;;16.55;1.40;;;;;;;;;;5103787;27;20524;-75
2024/01/03 08:44:31;;;;;;;14.18;1.65;;;;;;;;;;5155889;27;20046;-75
2024/01/03 08:46:58;;;;;;;24.33;2.03;;;;;;;;;;5103529;27;20403;-76
2024/01/03 08:49:24;;;;;;;19.02;1.92;;;;;;;;;;5155700;27;20411;-74
2024/01/03 08:51:50;;;;;;;13.40;1.10;;;;;;;;;;5155725;27;20088;-74
2024/01/03 08:54:16;;;;;;;15.63;1.95;;;;;;;;;;5137667;27;20082;-74
2024/01/03 08:56:42;;;;;;;17.38;1.85;;;;;;;;;;5156438;27;20039;-74
2024/01/03 08:59:09;;;;;;;18.02;2.00;;;;;;;;;;5137086;27;20043;-75
2024/01/03 09:01:35;;;;;;;12.65;1.33;;;;;;;;;;5137739;27;20043;-74
2024/01/03 09:04:02;;;;;;;13.80;1.67;;;;;;;;;;5120194;27;20047;-75
2024/01/03 09:06:28;;;;;;;15.15;1.15;;;;;;;;;;5136906;27;20043;-74
2024/01/03 09:08:54;;;;;;;15.00;1.85;;;;;;;;;;5133366;27;20499;-73
2024/01/03 09:11:25;;;;;;;16.30;1.38;;;;;;;;;;5116528;27;20043;-73
2024/01/03 09:13:51;;;;;;;15.13;1.55;;;;;;;;;;5117438;27;20082;-74
2024/01/03 09:16:26;;;;;;;8.27;0.77;;;;;;;;;;5134111;27;20043;-74
2024/01/03 09:18:53;;;;;;;10.80;1.02;;;;;;;;;;5135055;27;20061;-74
2024/01/03 09:21:19;;;;;;;16.17;2.10;;;;;;;;;;5116493;27;20046;-74
2024/01/03 09:23:46;;;;;;;16.50;1.42;;;;;;;;;;5133595;27;20043;-73
2024/01/03 09:26:12;;;;;;;16.55;1.63;;;;;;;;;;5134321;27;20043;-74
2024/01/03 09:28:41;;;;;;;15.60;1.55;;;;;;;;;;5133622;27;20050;-74
2024/01/03 09:31:08;;;;;;;9.32;0.60;;;;;;;;;;5133380;27;20505;-73
2024/01/03 09:33:34;;;;;;;11.77;0.82;;;;;;;;;;5134369;27;20150;-73
2024/01/03 09:36:00;;;;;;;9.90;0.70;;;;;;;;;;5134422;27;20054;-74
2024/01/03 09:38:26;;;;;;;14.03;1.57;;;;;;;;;;5133106;28;20043;-72
2024/01/03 09:40:53;;;;;;;11.60;0.88;;;;;;;;;;5133428;27;20043;-73
2024/01/03 09:43:19;;;;;;;11.27;1.43;;;;;;;;;;5134400;28;20427;-74
2024/01/03 09:45:46;;;;;;;11.93;1.00;;;;;;;;;;5134510;28;20115;-74
2024/01/03 09:48:12;;;;;;;11.50;0.95;;;;;;;;;;5134500;28;20047;-73
2024/01/03 09:50:39;;;;;;;11.90;1.25;;;;;;;;;;5134337;28;20047;-74
2024/01/03 09:53:05;;;;;;;10.68;1.05;;;;;;;;;;5134246;27;20047;-74
2024/01/03 09:55:32;;;;;;;11.15;1.38;;;;;;;;;;5134648;27;20051;-74
2024/01/03 09:57:58;;;;;;;10.17;0.87;;;;;;;;;;5115818;28;20043;-74
2024/01/03 10:00:29;;;;;;;11.38;0.88;;;;;;;;;;5133078;28;20044;-74
2024/01/03 10:03:00;;;;;;;11.20;1.08;;;;;;;;;;5133199;28;20043;-75
2024/01/03 10:05:26;;;;;;;12.25;0.80;;;;;;;;;;5133368;28;20093;-73
2024/01/03 10:07:52;;;;;;;14.30;1.20;;;;;;;;;;5116050;27;20069;-75
2024/01/03 10:10:31;;;;;;;18.33;1.60;;;;;;;;;;5136801;27;20059;-75
2024/01/03 10:12:57;;;;;;;14.38;2.17;;;;;;;;;;5136612;27;20175;-74
2024/01/03 10:15:23;;;;;;;11.18;1.40;;;;;;;;;;5140472;27;20054;-74
2024/01/03 10:18:05;;;;;;;11.68;1.45;;;;;;;;;;5140101;27;20079;-75
2024/01/03 10:20:31;;;;;;;11.60;1.42;;;;;;;;;;5140303;27;20067;-75
2024/01/03 10:23:04;;;;;;;12.55;1.33;;;;;;;;;;5140551;27;20050;-74
2024/01/03 10:25:30;;;;;;;14.98;2.13;;;;;;;;;;5123357;27;20038;-75
2024/01/03 10:28:03;;;;;;;9.05;0.95;;;;;;;;;;5140500;27;20450;-75
2024/01/03 10:30:30;;;;;;;15.93;1.20;;;;;;;;;;5158499;27;20131;-74
2024/01/03 10:33:03;;;;;;;16.13;1.30;;;;;;;;;;5158771;27;20103;-76
2024/01/03 10:35:30;;;;;;;13.77;1.20;;;;;;;;;;5122960;27;20432;-76
2024/01/03 10:37:57;;;;;;;15.85;1.75;;;;;;;;;;5159020;27;20129;-76
2024/01/03 10:40:27;;;;;;;17.15;1.55;;;;;;;;;;5122524;27;20125;-81
2024/01/03 10:42:54;;;;;;;12.70;1.50;;;;;;;;;;5122926;27;20089;-75
2024/01/03 10:45:20;;;;;;;18.77;1.77;;;;;;;;;;5122930;27;20099;-74
2024/01/03 10:47:47;;;;;;;14.23;1.40;;;;;;;;;;5139589;27;20047;-74
2024/01/03 10:50:13;;;;;;;15.10;1.23;;;;;;;;;;5122554;27;20450;-75
2024/01/03 10:52:41;;;;;;;21.43;1.67;;;;;;;;;;5122678;27;20312;-74
2024/01/03 10:55:10;;;;;;;17.27;1.33;;;;;;;;;;5123023;27;20453;-73
2024/01/03 10:57:36;;;;;;;17.02;1.85;;;;;;;;;;5139696;27;20046;-74
2024/01/03 11:00:20;;;;;;;18.47;1.80;;;;;;;;;;5122669;27;20042;-75
2024/01/03 11:02:49;;;;;;;18.13;1.67;;;;;;;;;;5158694;27;20125;-75
2024/01/03 11:05:35;;;;;;;19.05;1.88;;;;;;;;;;5158522;27;20423;-74
2024/01/03 11:08:05;;;;;;;9.68;1.05;;;;;;;;;;5157349;27;20129;-74
2024/01/03 11:10:54;;;;;;;13.32;1.00;;;;;;;;;;5140118;27;20050;-74
2024/01/03 11:13:26;;;;;;;9.35;0.75;;;;;;;;;;5139908;27;20050;-77
2024/01/03 11:15:53;;;;;;;9.65;0.73;;;;;;;;;;5139531;27;20050;-77
2024/01/03 11:18:38;;;;;;;10.23;0.73;;;;;;;;;;5158045;27;20545;-77
2024/01/03 11:21:31;;;;;;;7.30;0.57;;;;;;;;;;5158430;27;20200;-79
2024/01/03 11:23:58;;;;;;;6.90;0.40;;;;;;;;;;5158588;27;20054;-77
2024/01/03 11:26:43;;;;;;;6.68;0.50;;;;;;;;;;5156188;27;20046;-77
2024/01/03 11:29:09;;;;;;;8.38;0.80;;;;;;;;;;5157608;27;20058;-76
2024/01/03 11:31:54;;;;;;;8.20;0.70;;;;;;;;;;5157478;27;20053;-77
2024/01/03 11:34:39;;;;;;;5.40;0.40;;;;;;;;;;5139703;27;20042;-76
2024/01/03 11:37:07;;;;;;;8.50;0.60;;;;;;;;;;5157437;27;20483;-77
2024/01/03 11:39:42;;;;;;;5.50;0.50;;;;;;;;;;5138996;27;20038;-78
2024/01/03 11:42:08;;;;;;;5.13;0.50;;;;;;;;;;5139116;27;20058;-77
2024/01/03 11:44:35;;;;;;;6.32;0.50;;;;;;;;;;5157265;27;20042;-78
2024/01/03 11:47:02;;;;;;;8.75;0.60;;;;;;;;;;5138743;27;20039;-78
2024/01/03 11:49:28;;;;;;;10.20;0.60;;;;;;;;;;5157910;27;20049;-78
2024/01/03 11:51:55;;;;;;;7.97;0.70;;;;;;;;;;5121705;27;20053;-78
2024/01/03 11:54:21;;;;;;;11.27;0.85;;;;;;;;;;5157175;27;20058;-77
2024/01/03 11:56:48;;;;;;;7.43;0.60;;;;;;;;;;5157561;27;20050;-78
2024/01/03 11:59:14;;;;;;;8.77;1.08;;;;;;;;;;5138653;27;20054;-78
2024/01/03 12:01:55;;;;;;;10.30;0.80;;;;;;;;;;5138904;27;20509;-79
2024/01/03 12:04:21;;;;;;;9.07;0.82;;;;;;;;;;5139235;27;20395;-80
2024/01/03 12:06:47;;;;;;;8.07;0.75;;;;;;;;;;5157238;27;20121;-79
2024/01/03 12:09:17;;;;;;;10.88;0.60;;;;;;;;;;5157352;27;20053;-78
2024/01/03 12:11:44;;;;;;;10.20;0.60;;;;;;;;;;5157200;27;20125;-75
2024/01/03 12:14:10;;;;;;;10.70;0.70;;;;;;;;;;5157328;27;20049;-79
2024/01/03 12:16:50;;;;;;;7.90;0.43;;;;;;;;;;5157026;27;20049;-75
2024/01/03 12:19:32;;;;;;;8.23;0.80;;;;;;;;;;5139189;27;20364;-78
2024/01/03 12:21:58;;;;;;;9.93;0.85;;;;;;;;;;5121694;27;20047;-79
2024/01/03 12:24:41;;;;;;;13.27;1.02;;;;;;;;;;5138343;27;20078;-79
2024/01/03 12:27:08;;;;;;;10.70;0.88;;;;;;;;;;5136731;27;20050;-81
2024/01/03 12:29:35;;;;;;;8.07;0.70;;;;;;;;;;5157516;27;20057;-76
2024/01/03 12:32:17;;;;;;;11.90;0.80;;;;;;;;;;5139549;27;20066;-81
2024/01/03 12:34:44;;;;;;;14.70;1.02;;;;;;;;;;5159062;27;20135;-78
2024/01/03 12:37:10;;;;;;;9.73;0.88;;;;;;;;;;5161870;27;20041;-78
2024/01/03 12:39:39;;;;;;;9.48;0.90;;;;;;;;;;5161806;27;20066;-78
2024/01/03 12:42:08;;;;;;;4.32;0.80;;;;;;;;;;5161831;27;20374;-80
2024/01/03 12:44:35;;;;;;;4.82;0.55;;;;;;;;;;5142277;27;20098;-80
2024/01/03 12:47:02;;;;;;;8.80;0.88;;;;;;;;;;5143305;27;20103;-81
2024/01/03 12:49:28;;;;;;;6.10;0.55;;;;;;;;;;5123175;27;20067;-82
2024/01/03 12:51:56;;;;;;;6.43;0.52;;;;;;;;;;5158169;27;20050;-80
2024/01/03 12:54:22;;;;;;;7.72;0.70;;;;;;;;;;5140421;27;20061;-81
2024/01/03 12:56:48;;;;;;;7.85;0.65;;;;;;;;;;5121876;27;20053;-79
2024/01/03 12:59:15;;;;;;;4.80;0.63;;;;;;;;;;5138373;27;20047;-81
2024/01/03 13:01:41;;;;;;;9.82;0.93;;;;;;;;;;5157845;27;20125;-79
2024/01/03 13:04:07;;;;;;;10.40;1.07;;;;;;;;;;5159024;27;20069;-81
2024/01/03 13:06:33;;;;;;;8.52;0.88;;;;;;;;;;5156804;27;20072;-78
2024/01/03 13:09:02;;;;;;;9.18;0.60;;;;;;;;;;5134877;27;20058;-80
2024/01/03 13:11:28;;;;;;;6.13;0.68;;;;;;;;;;5136803;27;20115;-80
2024/01/03 13:13:54;;;;;;;6.67;0.80;;;;;;;;;;5136218;27;20047;-80
2024/01/03 13:16:21;;;;;;;6.72;0.75;;;;;;;;;;5136477;27;20080;-80
2024/01/03 13:18:47;;;;;;;9.10;0.80;;;;;;;;;;5135812;27;20118;-81
2024/01/03 13:21:13;;;;;;;10.80;0.55;;;;;;;;;;5135190;27;20498;-80
2024/01/03 13:23:39;;;;;;;10.77;0.75;;;;;;;;;;5137664;27;20043;-80
2024/01/03 13:26:05;;;;;;;9.32;0.60;;;;;;;;;;5119006;27;20047;-79
2024/01/03 13:28:32;;;;;;;14.82;1.00;;;;;;;;;;5137404;27;20441;-77
2024/01/03 13:30:58;;;;;;;8.30;0.77;;;;;;;;;;5136480;27;20046;-81
2024/01/03 13:33:24;;;;;;;8.65;0.82;;;;;;;;;;5139557;27;20462;-78
2024/01/03 13:35:50;;;;;;;15.20;1.10;;;;;;;;;;5140113;27;20390;-79
2024/01/03 13:38:16;;;;;;;8.48;0.80;;;;;;;;;;5139255;27;20395;-80
2024/01/03 13:40:43;;;;;;;11.95;1.00;;;;;;;;;;5140099;27;20069;-80
2024/01/03 13:43:09;;;;;;;15.30;0.80;;;;;;;;;;5139096;27;20047;-79
2024/01/03 13:45:35;;;;;;;8.45;0.65;;;;;;;;;;5118480;28;20076;-79
2024/01/03 13:48:01;;;;;;;9.82;0.70;;;;;;;;;;5136039;27;20043;-77
2024/01/03 13:50:28;;;;;;;14.82;0.80;;;;;;;;;;5140511;27;20043;-78
2024/01/03 13:52:54;;;;;;;10.50;0.80;;;;;;;;;;5141682;27;20047;-81
2024/01/03 13:55:20;;;;;;;11.57;0.80;;;;;;;;;;5139551;27;20204;-80
2024/01/03 13:57:46;;;;;;;9.07;0.52;;;;;;;;;;5144258;27;20067;-79
2024/01/03 14:00:13;;;;;;;14.73;1.15;;;;;;;;;;5140135;27;20574;-81
2024/01/03 14:02:39;;;;;;;9.23;1.00;;;;;;;;;;5121798;27;20058;-80
2024/01/03 14:05:05;;;;;;;11.68;1.30;;;;;;;;;;5139933;27;20075;-80
2024/01/03 14:07:31;;;;;;;11.63;0.87;;;;;;;;;;5139624;27;20179;-80
2024/01/03 14:09:57;;;;;;;11.90;1.48;;;;;;;;;;5141077;27;20055;-81
2024/01/03 14:12:23;;;;;;;12.75;1.10;;;;;;;;;;5141146;27;20047;-78
2024/01/03 14:14:49;;;;;;;13.48;1.10;;;;;;;;;;5140016;27;20051;-72
2024/01/03 14:17:16;;;;;;;11.85;1.00;;;;;;;;;;5141542;27;20117;-78
2024/01/03 14:19:42;;;;;;;8.07;0.60;;;;;;;;;;5140765;27;20051;-79
2024/01/03 14:22:09;;;;;;;16.75;1.13;;;;;;;;;;5141951;27;20039;-79
2024/01/03 14:24:35;;;;;;;14.05;0.82;;;;;;;;;;5140634;27;20127;-79
2024/01/03 14:27:01;;;;;;;11.25;1.15;;;;;;;;;;5141671;27;20076;-79
2024/01/03 14:29:27;;;;;;;14.63;1.23;;;;;;;;;;5140959;27;20552;-78
2024/01/03 14:31:54;;;;;;;19.45;1.10;;;;;;;;;;5141934;27;20120;-78
2024/01/03 14:34:20;;;;;;;10.32;1.25;;;;;;;;;;5140324;27;20051;-76
2024/01/03 14:37:04;;;;;;;17.80;1.00;;;;;;;;;;5141043;27;20035;-78